Time;durP1;ratioP1;P1;durP2;ratioP2;P2;SDS_P1;SDS_P2;PMS_P1;PMS_P2;Temp;Humidity;BMP_temperature;BMP_pressure;BME280_temperature;BME280_humidity;BME280_pressure;Samples;Min_cycle;Max_cycle;Signal;HPM_P1;HPM_P2
2021/04/05 00:00:12;;;;;;;14.57;6.93;;;4.50;92.20;;;;;;5094249;28;20628;-59
2021/04/05 00:02:39;;;;;;;14.20;6.57;;;4.30;92.30;;;;;;5094087;28;20687;-59
2021/04/05 00:05:08;;;;;;;11.17;6.83;;;4.30;92.50;;;;;;5093867;28;20204;-59
2021/04/05 00:07:35;;;;;;;13.33;8.43;;;4.40;92.60;;;;;;5093846;28;20301;-58
2021/04/05 00:10:06;;;;;;;8.70;6.50;;;4.40;92.60;;;;;;5094112;28;20208;-58
2021/04/05 00:12:32;;;;;;;13.10;7.37;;;4.40;92.50;;;;;;5094234;28;20212;-59
2021/04/05 00:14:58;;;;;;;15.13;6.60;;;4.60;92.40;;;;;;5094584;28;20208;-58
2021/04/05 00:17:24;;;;;;;15.03;6.80;;;4.60;92.20;;;;;;5094456;28;20715;-59
2021/04/05 00:19:51;;;;;;;14.37;6.80;;;4.70;92.10;;;;;;5093982;28;20215;-59
2021/04/05 00:22:17;;;;;;;12.87;8.10;;;4.70;91.90;;;;;;5093942;28;20265;-59
2021/04/05 00:24:44;;;;;;;12.30;7.23;;;4.80;91.70;;;;;;5093245;28;20228;-58
2021/04/05 00:27:10;;;;;;;10.60;6.77;;;4.90;91.70;;;;;;5093505;28;20220;-58
2021/04/05 00:29:36;;;;;;;12.77;7.20;;;4.90;91.60;;;;;;5093406;28;20211;-58
2021/04/05 00:32:03;;;;;;;13.00;7.23;;;5.00;91.50;;;;;;5093347;28;20200;-58
2021/04/05 00:34:29;;;;;;;14.57;6.97;;;5.00;91.40;;;;;;5093246;28;20196;-59
2021/04/05 00:36:55;;;;;;;10.40;6.33;;;5.00;91.30;;;;;;5093180;28;20224;-59
2021/04/05 00:39:21;;;;;;;13.70;7.50;;;5.00;91.30;;;;;;5093196;28;20212;-58
2021/04/05 00:41:49;;;;;;;12.00;6.83;;;5.10;91.20;;;;;;5093138;28;20775;-59
2021/04/05 00:44:15;;;;;;;11.23;6.60;;;5.10;91.20;;;;;;5093450;28;20297;-59
2021/04/05 00:46:41;;;;;;;9.80;6.60;;;5.10;91.10;;;;;;5092899;28;20204;-59
2021/04/05 00:49:08;;;;;;;11.47;6.70;;;5.10;91.20;;;;;;5093349;28;20660;-58
2021/04/05 00:51:34;;;;;;;13.93;7.00;;;5.10;91.20;;;;;;5093231;28;20219;-58
2021/04/05 00:54:01;;;;;;;10.67;6.10;;;5.00;91.10;;;;;;5092989;28;20668;-58
2021/04/05 00:56:28;;;;;;;8.87;6.30;;;4.90;91.30;;;;;;5093072;28;20200;-58
2021/04/05 00:58:55;;;;;;;12.77;6.50;;;4.90;91.30;;;;;;5092805;28;20694;-58
2021/04/05 01:01:25;;;;;;;9.07;6.37;;;4.90;91.40;;;;;;5092921;28;20208;-58
2021/04/05 01:03:52;;;;;;;12.77;6.93;;;4.90;91.40;;;;;;5092559;28;20612;-58
2021/04/05 01:06:21;;;;;;;14.67;6.87;;;4.90;91.40;;;;;;5093049;28;20246;-57
2021/04/05 01:08:48;;;;;;;13.83;6.83;;;4.90;91.50;;;;;;5092569;28;20224;-58
2021/04/05 01:11:16;;;;;;;10.40;6.80;;;4.90;91.50;;;;;;5092531;28;20557;-57
2021/04/05 01:13:43;;;;;;;11.00;6.70;;;4.90;91.70;;;;;;5092518;28;20205;-58
2021/04/05 01:16:10;;;;;;;11.53;7.07;;;4.80;91.70;;;;;;5092707;28;20237;-58
2021/04/05 01:18:37;;;;;;;13.60;7.20;;;4.90;91.80;;;;;;5092758;28;20277;-58
2021/04/05 01:21:04;;;;;;;9.87;7.13;;;4.90;91.70;;;;;;5092711;28;20211;-58
2021/04/05 01:23:31;;;;;;;12.10;7.10;;;4.90;91.70;;;;;;5092571;28;20262;-58
2021/04/05 01:25:57;;;;;;;10.40;6.73;;;4.90;91.70;;;;;;5092629;28;20219;-57
2021/04/05 01:28:23;;;;;;;11.43;6.80;;;4.80;91.90;;;;;;5092306;28;20228;-58
2021/04/05 01:30:52;;;;;;;13.77;6.63;;;4.70;92.00;;;;;;5092253;28;20204;-58
2021/04/05 01:33:21;;;;;;;12.27;7.40;;;4.70;91.90;;;;;;5092552;28;20579;-59
2021/04/05 01:35:49;;;;;;;12.70;7.20;;;4.70;91.90;;;;;;5092220;28;20205;-58
2021/04/05 01:38:17;;;;;;;12.87;7.17;;;4.70;91.90;;;;;;5091791;28;20789;-58
2021/04/05 01:40:47;;;;;;;11.93;6.90;;;4.70;91.80;;;;;;5092039;28;20216;-58
2021/04/05 01:43:14;;;;;;;11.10;6.13;;;4.70;92.00;;;;;;5091769;28;20235;-59
2021/04/05 01:45:41;;;;;;;13.47;7.20;;;4.70;92.00;;;;;;5091945;28;20204;-59
2021/04/05 01:48:08;;;;;;;12.57;6.47;;;4.70;92.00;;;;;;5091663;28;20743;-59
2021/04/05 01:50:35;;;;;;;11.03;6.10;;;4.70;92.00;;;;;;5091980;28;20225;-58
2021/04/05 01:53:04;;;;;;;9.27;6.00;;;4.70;92.00;;;;;;5091878;28;20204;-58
2021/04/05 01:55:31;;;;;;;10.07;6.10;;;4.70;92.00;;;;;;5091639;28;20230;-59
2021/04/05 01:57:58;;;;;;;11.30;6.73;;;4.70;92.00;;;;;;5090411;28;20780;-59
2021/04/05 02:00:27;;;;;;;11.30;7.23;;;4.70;91.90;;;;;;5091890;28;20707;-58
2021/04/05 02:02:55;;;;;;;11.47;6.53;;;4.80;91.90;;;;;;5091524;28;20311;-59
2021/04/05 02:05:23;;;;;;;10.43;6.63;;;4.80;91.90;;;;;;5091677;28;20211;-58
2021/04/05 02:07:50;;;;;;;8.87;6.20;;;4.80;91.90;;;;;;5091480;28;20231;-59
2021/04/05 02:10:20;;;;;;;13.50;6.90;;;4.80;92.00;;;;;;5091445;28;20257;-58
2021/04/05 02:12:47;;;;;;;12.37;6.83;;;4.70;92.00;;;;;;5091718;28;20204;-59
2021/04/05 02:15:16;;;;;;;12.30;6.70;;;4.70;92.00;;;;;;5091619;28;20211;-59
2021/04/05 02:17:44;;;;;;;9.77;6.83;;;4.60;91.90;;;;;;5091473;28;20224;-59
2021/04/05 02:20:12;;;;;;;12.37;6.93;;;4.70;91.70;;;;;;5091564;28;20200;-58
2021/04/05 02:22:40;;;;;;;12.77;6.17;;;4.60;91.60;;;;;;5091411;28;20211;-58
2021/04/05 02:25:11;;;;;;;13.07;6.50;;;4.70;91.70;;;;;;5091106;28;20208;-57
2021/04/05 02:27:37;;;;;;;9.93;5.73;;;4.70;91.70;;;;;;5091365;28;20227;-58
2021/04/05 02:30:05;;;;;;;10.60;6.03;;;4.80;91.60;;;;;;5091965;28;20208;-58
2021/04/05 02:32:33;;;;;;;8.03;5.47;;;4.80;91.40;;;;;;5091278;28;20204;-58
2021/04/05 02:34:59;;;;;;;10.43;6.00;;;4.80;91.40;;;;;;5091171;28;20203;-58
2021/04/05 02:37:25;;;;;;;8.67;5.47;;;4.80;91.40;;;;;;5091195;28;20305;-58
2021/04/05 02:39:52;;;;;;;9.47;6.23;;;4.80;91.30;;;;;;5091289;28;20208;-58
2021/04/05 02:42:20;;;;;;;8.90;5.40;;;4.90;91.20;;;;;;5091348;28;20477;-57
2021/04/05 02:44:46;;;;;;;9.07;5.57;;;4.90;91.50;;;;;;5090910;28;20224;-58
2021/04/05 02:47:13;;;;;;;10.27;5.80;;;5.00;91.20;;;;;;5091112;28;20220;-58
2021/04/05 02:49:41;;;;;;;10.83;6.70;;;5.00;91.20;;;;;;5092250;28;20207;-58
2021/04/05 02:52:08;;;;;;;10.50;7.07;;;5.00;91.20;;;;;;5091691;28;20208;-58
2021/04/05 02:54:35;;;;;;;10.37;6.53;;;4.90;91.40;;;;;;5091406;28;20200;-58
2021/04/05 02:57:02;;;;;;;10.13;6.20;;;4.80;91.50;;;;;;5116091;22;20238;-63
2021/04/05 02:59:28;;;;;;;11.20;6.43;;;4.80;91.50;;;;;;5093374;28;20220;-62
2021/04/05 03:01:55;;;;;;;9.00;6.30;;;4.80;91.50;;;;;;5093023;28;20215;-62
2021/04/05 03:04:22;;;;;;;9.70;5.50;;;4.80;91.50;;;;;;5093404;28;20220;-63
2021/04/05 03:06:50;;;;;;;15.43;6.13;;;4.70;91.50;;;;;;5094194;28;20207;-61
2021/04/05 03:09:17;;;;;;;10.83;5.97;;;4.70;91.70;;;;;;5073751;28;20209;-62
2021/04/05 03:11:47;;;;;;;12.50;5.87;;;4.70;91.70;;;;;;5077270;28;20212;-62
2021/04/05 03:14:14;;;;;;;9.10;5.60;;;4.70;91.70;;;;;;5077452;28;20255;-62
2021/04/05 03:16:41;;;;;;;10.57;5.57;;;4.70;91.70;;;;;;5077314;28;20208;-62
2021/04/05 03:19:10;;;;;;;10.47;5.67;;;4.70;91.70;;;;;;5077472;28;20224;-61
2021/04/05 03:21:37;;;;;;;9.97;6.13;;;4.70;91.70;;;;;;5077024;28;20209;-62
2021/04/05 03:24:05;;;;;;;8.67;5.87;;;4.70;92.00;;;;;;5076969;28;20699;-61
2021/04/05 03:26:31;;;;;;;9.67;5.50;;;4.60;91.60;;;;;;5077339;28;20209;-61
2021/04/05 03:28:58;;;;;;;7.80;5.40;;;4.50;92.10;;;;;;5076435;28;20304;-62
2021/04/05 03:31:27;;;;;;;8.57;5.57;;;4.50;92.20;;;;;;5076252;28;20751;-62
2021/04/05 03:33:56;;;;;;;13.23;6.43;;;4.40;92.40;;;;;;5075899;28;20208;-60
2021/04/05 03:36:27;;;;;;;10.37;5.73;;;4.40;92.50;;;;;;5076880;28;20205;-62
2021/04/05 03:38:54;;;;;;;9.43;5.77;;;4.40;92.50;;;;;;5076109;28;20225;-61
2021/04/05 03:41:31;;;;;;;12.17;6.00;;;4.40;92.50;;;;;;5075957;28;20295;-62
2021/04/05 03:44:04;;;;;;;9.17;5.83;;;4.30;92.60;;;;;;5076212;28;20252;-60
2021/04/05 03:46:35;;;;;;;9.67;5.57;;;4.40;92.70;;;;;;5075749;28;20734;-62
2021/04/05 03:49:12;;;;;;;9.87;4.97;;;4.40;92.60;;;;;;5075882;28;20240;-63
2021/04/05 03:51:47;;;;;;;8.53;5.17;;;4.40;92.60;;;;;;5075828;28;20209;-61
2021/04/05 03:54:18;;;;;;;8.90;5.70;;;4.40;92.60;;;;;;5075467;28;20288;-62
2021/04/05 03:56:47;;;;;;;9.20;5.50;;;4.50;92.50;;;;;;5075490;28;20231;-61
2021/04/05 03:59:26;;;;;;;9.43;5.60;;;4.50;92.80;;;;;;5075188;28;20716;-62
2021/04/05 04:01:56;;;;;;;12.97;5.40;;;4.50;92.40;;;;;;5075819;28;20205;-62
2021/04/05 04:04:28;;;;;;;9.17;5.03;;;4.60;92.30;;;;;;5076111;28;20278;-61
2021/04/05 04:07:05;;;;;;;10.33;4.80;;;4.60;92.30;;;;;;5077362;28;20264;-60
2021/04/05 04:09:34;;;;;;;7.13;5.33;;;4.60;92.40;;;;;;5076462;28;20208;-61
2021/04/05 04:12:02;;;;;;;14.73;5.90;;;4.60;92.30;;;;;;5075702;28;20276;-61
2021/04/05 04:14:30;;;;;;;9.43;4.93;;;4.60;92.40;;;;;;5075018;28;20228;-61
2021/04/05 04:16:58;;;;;;;10.60;5.20;;;4.60;92.50;;;;;;5075964;28;20205;-60
2021/04/05 04:19:26;;;;;;;8.90;5.13;;;4.60;92.60;;;;;;5075217;28;20220;-62
2021/04/05 04:21:52;;;;;;;10.93;5.60;;;4.50;92.60;;;;;;5074446;28;20231;-61
2021/04/05 04:24:19;;;;;;;8.70;5.00;;;4.60;92.70;;;;;;5074572;28;20759;-61
2021/04/05 04:26:46;;;;;;;12.63;5.77;;;4.60;92.90;;;;;;5075102;28;20205;-61
2021/04/05 04:29:18;;;;;;;9.70;5.73;;;4.70;92.90;;;;;;5074879;28;20228;-61
2021/04/05 04:31:45;;;;;;;8.83;4.77;;;4.80;93.00;;;;;;5075692;28;20213;-62
2021/04/05 04:34:14;;;;;;;9.30;4.93;;;4.90;93.00;;;;;;5076313;28;20205;-61
2021/04/05 04:36:41;;;;;;;9.43;5.43;;;4.90;92.70;;;;;;5076066;28;20308;-63
2021/04/05 04:39:07;;;;;;;12.17;5.67;;;5.10;92.50;;;;;;5075578;28;20596;-63
2021/04/05 04:41:34;;;;;;;8.13;4.93;;;5.10;92.50;;;;;;5076270;28;20236;-61
2021/04/05 04:44:01;;;;;;;10.87;5.07;;;5.30;92.10;;;;;;5076173;28;20224;-62
2021/04/05 04:46:29;;;;;;;9.57;5.00;;;5.50;91.90;;;;;;5076096;28;20200;-60
2021/04/05 04:48:56;;;;;;;11.33;5.47;;;5.50;91.60;;;;;;5075539;28;20271;-60
2021/04/05 04:51:23;;;;;;;9.53;5.40;;;5.70;91.30;;;;;;5075497;28;20581;-61
2021/04/05 04:53:50;;;;;;;9.97;4.50;;;5.70;91.10;;;;;;5075628;28;20619;-61
2021/04/05 04:56:16;;;;;;;13.93;6.23;;;5.70;91.10;;;;;;5075774;28;20213;-62
2021/04/05 04:58:44;;;;;;;10.50;4.67;;;5.80;91.00;;;;;;5075583;28;20543;-62
2021/04/05 05:01:11;;;;;;;11.17;4.60;;;5.70;90.90;;;;;;5076094;28;20226;-62
2021/04/05 05:03:44;;;;;;;8.73;4.53;;;5.90;90.80;;;;;;5076672;28;20589;-60
2021/04/05 05:06:14;;;;;;;6.70;3.77;;;5.90;90.60;;;;;;5075833;28;20201;-62
2021/04/05 05:08:42;;;;;;;9.17;4.30;;;6.00;90.40;;;;;;5076504;28;20263;-61
2021/04/05 05:11:09;;;;;;;10.40;4.53;;;6.10;90.10;;;;;;5076696;28;20209;-60
2021/04/05 05:13:35;;;;;;;8.93;4.30;;;6.20;90.00;;;;;;5075850;28;20204;-63
2021/04/05 05:16:05;;;;;;;7.47;4.10;;;6.40;89.40;;;;;;5076721;28;20219;-63
2021/04/05 05:18:32;;;;;;;10.13;4.53;;;6.50;88.50;;;;;;5077286;28;20240;-63
2021/04/05 05:21:01;;;;;;;7.17;4.23;;;6.50;88.00;;;;;;5076151;28;20208;-61
2021/04/05 05:23:29;;;;;;;8.67;4.30;;;6.60;87.90;;;;;;5075430;28;20221;-63
2021/04/05 05:25:56;;;;;;;9.47;4.40;;;6.80;87.00;;;;;;5075590;28;20216;-63
2021/04/05 05:28:24;;;;;;;7.70;4.00;;;7.00;86.30;;;;;;5074827;28;20614;-61
2021/04/05 05:30:51;;;;;;;10.33;4.50;;;7.10;85.60;;;;;;5075062;28;20197;-62
2021/04/05 05:33:21;;;;;;;10.50;4.40;;;7.20;85.10;;;;;;5074376;28;20201;-63
2021/04/05 05:35:50;;;;;;;8.23;4.30;;;7.40;84.40;;;;;;5074144;28;20261;-62
2021/04/05 05:38:17;;;;;;;9.17;4.17;;;7.40;83.70;;;;;;5073683;28;20282;-61
2021/04/05 05:40:46;;;;;;;6.13;3.67;;;7.50;83.60;;;;;;5073956;28;20200;-62
2021/04/05 05:43:27;;;;;;;9.17;5.33;;;7.70;83.00;;;;;;5074209;28;20227;-62
2021/04/05 05:46:13;;;;;;;8.80;4.50;;;7.70;82.50;;;;;;5073846;28;20238;-62
2021/04/05 05:48:52;;;;;;;7.60;4.57;;;7.90;82.10;;;;;;5072146;28;20712;-62
2021/04/05 05:51:34;;;;;;;8.07;4.03;;;8.10;81.20;;;;;;5072228;28;20212;-63
2021/04/05 05:54:12;;;;;;;5.53;3.27;;;8.40;80.50;;;;;;5071996;28;20205;-62
2021/04/05 05:56:46;;;;;;;8.87;4.77;;;8.40;79.80;;;;;;5072406;28;20190;-61
2021/04/05 05:59:22;;;;;;;6.97;3.97;;;8.50;79.60;;;;;;5071393;28;20243;-61
2021/04/05 06:02:05;;;;;;;5.83;4.13;;;8.50;79.30;;;;;;5071952;28;20566;-62
2021/04/05 06:04:43;;;;;;;8.03;4.67;;;8.70;78.90;;;;;;5072065;28;20224;-63
2021/04/05 06:07:19;;;;;;;10.47;5.93;;;8.90;78.40;;;;;;5072013;28;20210;-62
2021/04/05 06:10:04;;;;;;;7.40;4.07;;;9.10;77.50;;;;;;5071844;28;20208;-63
2021/04/05 06:12:42;;;;;;;6.93;3.93;;;9.30;76.70;;;;;;5072383;28;20205;-62
2021/04/05 06:15:20;;;;;;;6.10;3.87;;;9.40;76.70;;;;;;5072180;28;20204;-63
2021/04/05 06:18:05;;;;;;;8.77;4.17;;;9.50;75.90;;;;;;5072042;28;20704;-62
2021/04/05 06:20:38;;;;;;;9.00;3.93;;;10.00;74.70;;;;;;5072798;28;20193;-62
2021/04/05 06:23:14;;;;;;;7.57;4.33;;;10.40;72.60;;;;;;5072176;28;20217;-62
2021/04/05 06:25:56;;;;;;;7.50;4.00;;;10.80;71.50;;;;;;5072898;28;20209;-61
2021/04/05 06:28:30;;;;;;;7.67;3.90;;;11.50;70.00;;;;;;5072819;28;20270;-63
2021/04/05 06:31:08;;;;;;;12.10;4.60;;;12.10;68.20;;;;;;5073083;28;20591;-64
2021/04/05 06:33:39;;;;;;;7.63;3.93;;;12.40;66.40;;;;;;5073848;28;20247;-63
2021/04/05 06:36:16;;;;;;;12.30;5.27;;;12.60;65.80;;;;;;5072898;28;20211;-64
2021/04/05 06:38:46;;;;;;;6.07;4.23;;;12.60;65.10;;;;;;5071749;28;20232;-62
2021/04/05 06:41:36;;;;;;;6.50;3.90;;;12.50;64.90;;;;;;5072058;28;20208;-63
2021/04/05 06:44:33;;;;;;;8.03;4.13;;;12.40;65.00;;;;;;5071367;28;20228;-64
2021/04/05 06:47:38;;;;;;;13.27;3.97;;;12.20;65.10;;;;;;5061689;28;20570;-63
2021/04/05 06:50:14;;;;;;;10.20;3.80;;;12.00;65.60;;;;;;5072291;28;20216;-62
2021/04/05 06:53:12;;;;;;;8.33;3.97;;;11.90;65.80;;;;;;5072588;28;20200;-63
2021/04/05 06:55:44;;;;;;;10.60;4.60;;;11.80;66.10;;;;;;5072460;28;20193;-62
2021/04/05 06:58:24;;;;;;;6.80;3.60;;;11.80;66.30;;;;;;5071941;28;20236;-62
2021/04/05 07:01:25;;;;;;;6.60;3.60;;;11.70;66.10;;;;;;5072194;28;20193;-63
2021/04/05 07:04:08;;;;;;;8.87;3.57;;;11.70;66.10;;;;;;5071806;28;20303;-63
2021/04/05 07:06:43;;;;;;;6.83;3.97;;;11.80;65.60;;;;;;5072475;28;20189;-63
2021/04/05 07:09:17;;;;;;;6.20;3.57;;;11.90;65.40;;;;;;5071870;28;20240;-62
2021/04/05 07:12:32;;;;;;;7.43;3.50;;;12.10;65.00;;;;;;5071945;28;20212;-62
2021/04/05 07:15:11;;;;;;;6.80;3.70;;;12.20;64.40;;;;;;5009780;28;20218;-62
2021/04/05 07:17:46;;;;;;;5.93;3.37;;;12.20;63.80;;;;;;5009683;28;20231;-64
2021/04/05 07:20:17;;;;;;;9.83;3.90;;;12.40;63.40;;;;;;5046118;28;20212;-62
2021/04/05 07:23:02;;;;;;;11.23;3.53;;;12.50;62.70;;;;;;5071372;28;20651;-63
2021/04/05 07:25:45;;;;;;;7.50;3.80;;;12.70;62.60;;;;;;5071762;28;20255;-62
2021/04/05 07:28:19;;;;;;;7.20;3.70;;;12.70;62.00;;;;;;5071635;28;20233;-64
2021/04/05 07:30:54;;;;;;;7.63;4.23;;;13.00;61.90;;;;;;5071381;28;20209;-62
2021/04/05 07:33:31;;;;;;;8.10;4.17;;;13.20;61.30;;;;;;5071063;28;20204;-62
2021/04/05 07:36:04;;;;;;;11.50;6.23;;;13.40;61.00;;;;;;5071358;28;20215;-64
2021/04/05 07:38:40;;;;;;;7.80;4.00;;;13.60;60.60;;;;;;5071470;28;20229;-64
2021/04/05 07:41:10;;;;;;;6.30;3.43;;;14.00;59.30;;;;;;5071418;28;20196;-64
2021/04/05 07:43:45;;;;;;;5.53;3.57;;;14.30;58.50;;;;;;5071224;28;20550;-63
2021/04/05 07:46:29;;;;;;;7.77;3.57;;;14.60;58.00;;;;;;5071362;28;20197;-63
2021/04/05 07:49:08;;;;;;;6.47;3.90;;;15.40;57.00;;;;;;5070647;28;20220;-64
2021/04/05 07:51:44;;;;;;;7.80;4.30;;;16.60;55.20;;;;;;5071042;28;20254;-63
2021/04/05 07:54:11;;;;;;;8.53;4.17;;;17.70;53.20;;;;;;5070656;28;20200;-64
2021/04/05 07:56:46;;;;;;;7.53;3.97;;;18.60;51.70;;;;;;5071962;28;20201;-64
2021/04/05 07:59:21;;;;;;;8.60;4.50;;;19.00;50.80;;;;;;5073861;28;20279;-63
2021/04/05 08:01:57;;;;;;;10.43;5.03;;;19.40;50.00;;;;;;5074487;28;20660;-68
2021/04/05 08:04:32;;;;;;;5.70;3.70;;;19.50;49.30;;;;;;5074217;28;20220;-65
2021/04/05 08:07:03;;;;;;;7.00;3.97;;;19.40;49.20;;;;;;5074331;28;20265;-66
2021/04/05 08:09:36;;;;;;;6.30;3.58;;;19.50;49.00;;;;;;5074956;28;20259;-68
2021/04/05 08:12:31;;;;;;;7.03;3.92;;;19.40;49.10;;;;;;5073783;28;20512;-66
2021/04/05 08:15:11;;;;;;;7.70;4.05;;;19.10;48.80;;;;;;5060514;28;20258;-66
2021/04/05 08:18:01;;;;;;;7.10;4.32;;;18.80;49.80;;;;;;5074195;28;20229;-65
2021/04/05 08:20:35;;;;;;;8.33;4.37;;;18.50;50.10;;;;;;5074470;28;20201;-65
2021/04/05 08:23:18;;;;;;;8.97;4.20;;;18.40;50.70;;;;;;5074370;28;20235;-64
2021/04/05 08:25:57;;;;;;;7.23;4.37;;;18.30;51.00;;;;;;5074079;28;20270;-64
2021/04/05 08:28:32;;;;;;;8.47;3.97;;;18.30;51.00;;;;;;5073774;28;20235;-65
2021/04/05 08:31:10;;;;;;;10.30;4.57;;;18.10;51.20;;;;;;5073602;28;20205;-62
2021/04/05 08:33:49;;;;;;;15.70;5.00;;;18.00;51.40;;;;;;5073347;28;20197;-61
2021/04/05 08:36:26;;;;;;;7.17;4.43;;;18.20;52.20;;;;;;5073719;28;20204;-62
2021/04/05 08:39:03;;;;;;;8.30;4.50;;;18.40;51.50;;;;;;5073423;28;20255;-65
2021/04/05 08:41:38;;;;;;;8.67;4.33;;;18.60;51.40;;;;;;5073513;28;20204;-63
2021/04/05 08:44:14;;;;;;;11.23;4.37;;;18.70;51.00;;;;;;5073045;28;20224;-62
2021/04/05 08:46:40;;;;;;;8.27;4.53;;;18.70;50.60;;;;;;5073462;28;20212;-64
2021/04/05 08:49:14;;;;;;;10.50;4.33;;;18.70;51.10;;;;;;5073007;28;20298;-63
2021/04/05 08:51:45;;;;;;;9.13;4.13;;;18.80;51.00;;;;;;5074006;28;20205;-63
2021/04/05 08:54:14;;;;;;;8.43;4.30;;;18.80;50.90;;;;;;5073407;28;20282;-62
2021/04/05 08:56:44;;;;;;;13.10;4.40;;;18.80;51.00;;;;;;5073378;28;20228;-61
2021/04/05 08:59:18;;;;;;;6.32;4.05;;;19.00;50.30;;;;;;5114512;22;20220;-56
2021/04/05 09:01:48;;;;;;;11.73;5.82;;;19.20;50.00;;;;;;5092905;28;20572;-58
2021/04/05 09:04:20;;;;;;;9.13;5.05;;;19.40;50.00;;;;;;5092746;28;20224;-59
2021/04/05 09:06:57;;;;;;;9.50;4.67;;;19.50;50.20;;;;;;5092702;28;20671;-60
2021/04/05 09:09:25;;;;;;;12.05;5.07;;;19.50;50.40;;;;;;5092998;28;20239;-58
2021/04/05 09:11:53;;;;;;;11.30;5.10;;;19.30;50.70;;;;;;5092600;28;20705;-60
2021/04/05 09:14:21;;;;;;;14.70;5.40;;;19.20;51.00;;;;;;5092567;28;20576;-60
2021/04/05 09:17:24;;;;;;;10.70;4.50;;;19.00;51.50;;;;;;5092416;28;20204;-56
2021/04/05 09:20:34;;;;;;;14.63;5.13;;;18.80;51.20;;;;;;5092454;28;20204;-58
2021/04/05 09:23:32;;;;;;;12.17;5.00;;;18.50;51.60;;;;;;5092350;28;20208;-58
2021/04/05 09:26:30;;;;;;;15.90;5.07;;;18.20;51.40;;;;;;5092560;28;20191;-59
2021/04/05 09:29:10;;;;;;;11.00;5.30;;;17.90;52.60;;;;;;5085937;28;20257;-55
2021/04/05 09:32:05;;;;;;;11.87;4.93;;;17.80;52.70;;;;;;5092554;28;20208;-56
2021/04/05 09:35:10;;;;;;;9.27;4.83;;;17.60;52.80;;;;;;5092233;28;20200;-55
2021/04/05 09:37:58;;;;;;;12.57;4.40;;;17.50;52.60;;;;;;5092194;28;20289;-55
2021/04/05 09:41:08;;;;;;;11.13;4.33;;;17.70;52.20;;;;;;5051517;28;20207;-55
2021/04/05 09:44:12;;;;;;;12.45;4.55;;;17.60;50.50;;;;;;5091426;28;20431;-62
2021/04/05 09:47:10;;;;;;;10.73;4.30;;;17.70;50.60;;;;;;5091729;28;20208;-60
2021/04/05 09:49:51;;;;;;;10.93;4.53;;;17.70;50.50;;;;;;5064097;28;20204;-59
2021/04/05 09:52:33;;;;;;;9.83;4.00;;;17.90;50.30;;;;;;5091934;28;20265;-57
2021/04/05 09:55:06;;;;;;;12.67;4.17;;;18.00;49.20;;;;;;5092190;28;20545;-58
2021/04/05 09:57:38;;;;;;;7.37;3.23;;;17.90;49.10;;;;;;5091827;28;20232;-61
2021/04/05 10:00:11;;;;;;;7.30;3.93;;;18.00;48.30;;;;;;5091764;28;20204;-57
2021/04/05 10:02:45;;;;;;;12.23;3.40;;;18.20;47.80;;;;;;5091792;28;20208;-58
2021/04/05 10:05:12;;;;;;;7.33;3.47;;;18.00;47.20;;;;;;5091487;28;20280;-56
2021/04/05 10:07:41;;;;;;;28.83;4.97;;;17.90;47.10;;;;;;5091280;28;20228;-59
2021/04/05 10:10:12;;;;;;;9.97;3.57;;;17.70;45.70;;;;;;5091527;28;20211;-56
2021/04/05 10:12:39;;;;;;;10.00;3.43;;;17.70;45.80;;;;;;5091303;28;20553;-59
2021/04/05 10:15:07;;;;;;;10.07;3.83;;;17.70;46.40;;;;;;5091403;28;20266;-57
2021/04/05 10:17:34;;;;;;;7.17;3.47;;;17.60;46.20;;;;;;5091108;28;20224;-58
2021/04/05 10:20:06;;;;;;;14.03;3.73;;;17.60;47.20;;;;;;5090319;28;20671;-57
2021/04/05 10:22:39;;;;;;;14.03;4.23;;;17.80;46.30;;;;;;5091554;28;20212;-57
2021/04/05 10:25:08;;;;;;;9.37;4.17;;;17.90;45.80;;;;;;5091163;28;20238;-57
2021/04/05 10:27:36;;;;;;;12.10;3.47;;;17.90;45.50;;;;;;5091675;28;20227;-59
2021/04/05 10:30:06;;;;;;;13.77;3.90;;;17.90;45.90;;;;;;5091257;28;20215;-56
2021/04/05 10:32:32;;;;;;;7.57;3.50;;;18.00;45.50;;;;;;5091210;28;20216;-57
2021/04/05 10:35:01;;;;;;;11.33;4.20;;;18.10;45.30;;;;;;5091277;28;20204;-58
2021/04/05 10:37:31;;;;;;;10.20;3.43;;;18.10;45.00;;;;;;5091058;28;20228;-57
2021/04/05 10:39:59;;;;;;;9.13;3.50;;;18.30;45.00;;;;;;5090885;28;20257;-58
2021/04/05 10:42:27;;;;;;;8.97;3.63;;;18.50;44.60;;;;;;5090868;28;20212;-57
2021/04/05 10:44:58;;;;;;;8.57;3.90;;;18.40;44.20;;;;;;5090735;28;20654;-58
2021/04/05 10:47:28;;;;;;;9.57;4.03;;;18.40;44.00;;;;;;5090925;28;20567;-58
2021/04/05 10:49:56;;;;;;;7.93;3.40;;;18.50;44.00;;;;;;5090927;28;20686;-58
2021/04/05 10:52:26;;;;;;;7.67;3.60;;;18.80;43.50;;;;;;5090816;28;20622;-57
2021/04/05 10:54:54;;;;;;;8.18;3.85;;;18.90;43.40;;;;;;5090710;28;20204;-59
2021/04/05 10:57:27;;;;;;;9.20;3.53;;;19.20;43.00;;;;;;5090590;28;20219;-56
2021/04/05 10:59:57;;;;;;;5.65;3.08;;;19.30;42.80;;;;;;5090596;28;20211;-55
2021/04/05 11:02:27;;;;;;;8.27;3.47;;;19.20;42.80;;;;;;5090850;28;20212;-56
2021/04/05 11:04:56;;;;;;;8.18;3.80;;;19.30;42.60;;;;;;5089783;28;20449;-57
2021/04/05 11:07:24;;;;;;;7.60;3.90;;;19.30;42.80;;;;;;5090666;28;20216;-59
2021/04/05 11:09:52;;;;;;;13.82;4.10;;;19.20;43.10;;;;;;5090536;28;20634;-56
2021/04/05 11:12:21;;;;;;;9.45;3.88;;;19.20;43.20;;;;;;5090806;28;20212;-56
2021/04/05 11:14:50;;;;;;;17.47;5.47;;;19.20;43.10;;;;;;5090550;28;20201;-57
2021/04/05 11:17:19;;;;;;;12.18;4.72;;;19.00;44.60;;;;;;5090660;28;20208;-55
2021/04/05 11:19:53;;;;;;;10.53;4.17;;;18.90;45.40;;;;;;5090532;28;20239;-55
2021/04/05 11:22:22;;;;;;;11.93;5.67;;;18.90;46.20;;;;;;5090991;28;20251;-55
2021/04/05 11:24:54;;;;;;;21.83;5.70;;;18.60;48.70;;;;;;5090478;28;20220;-56
2021/04/05 11:27:24;;;;;;;18.57;5.90;;;18.40;49.50;;;;;;5090605;28;20638;-55
2021/04/05 11:29:53;;;;;;;15.10;6.00;;;17.90;50.00;;;;;;5090430;28;20779;-55
2021/04/05 11:32:21;;;;;;;11.50;5.57;;;17.50;50.70;;;;;;5094576;28;20246;-56
2021/04/05 11:34:54;;;;;;;14.40;6.20;;;17.40;51.20;;;;;;5094299;28;20202;-55
2021/04/05 11:37:21;;;;;;;17.43;7.27;;;17.30;51.80;;;;;;5094724;28;20691;-56
2021/04/05 11:39:57;;;;;;;13.63;5.30;;;17.20;52.20;;;;;;5094614;28;20204;-56
2021/04/05 11:42:33;;;;;;;16.07;6.40;;;17.10;52.80;;;;;;5095003;28;20210;-58
2021/04/05 11:45:02;;;;;;;23.10;6.07;;;16.90;52.20;;;;;;5094422;28;20220;-56
2021/04/05 11:47:37;;;;;;;12.70;6.50;;;16.60;52.60;;;;;;5113851;28;20311;-58
2021/04/05 11:50:11;;;;;;;31.47;7.20;;;16.40;52.70;;;;;;5114667;28;20583;-60
2021/04/05 11:52:44;;;;;;;15.07;6.20;;;16.20;52.90;;;;;;5114808;28;20210;-56
2021/04/05 11:55:18;;;;;;;16.17;6.20;;;16.10;53.20;;;;;;5114455;28;20577;-56
2021/04/05 11:57:51;;;;;;;17.33;6.43;;;16.00;53.80;;;;;;5113915;28;20231;-57
2021/04/05 12:00:25;;;;;;;14.37;6.30;;;16.00;53.80;;;;;;5114278;28;20689;-56
2021/04/05 12:03:00;;;;;;;19.80;6.80;;;16.00;53.70;;;;;;5089693;28;20499;-58
2021/04/05 12:05:30;;;;;;;17.00;6.93;;;15.90;53.70;;;;;;5073481;28;20228;-60
2021/04/05 12:08:02;;;;;;;17.73;7.73;;;15.80;54.60;;;;;;5073473;28;20228;-57
2021/04/05 12:10:31;;;;;;;14.07;7.50;;;15.80;56.60;;;;;;5073418;28;20243;-57
2021/04/05 12:13:03;;;;;;;15.57;7.40;;;15.80;57.40;;;;;;5073849;28;20632;-60
2021/04/05 12:15:30;;;;;;;13.63;6.57;;;15.80;57.00;;;;;;5073518;28;20201;-57
2021/04/05 12:17:58;;;;;;;15.47;7.30;;;15.90;57.20;;;;;;5073334;28;20781;-59
2021/04/05 12:20:27;;;;;;;19.17;8.60;;;15.80;57.50;;;;;;5073417;28;20213;-58
2021/04/05 12:22:55;;;;;;;19.53;8.17;;;15.70;58.70;;;;;;5073049;28;20213;-59
2021/04/05 12:25:28;;;;;;;16.07;7.97;;;15.60;58.30;;;;;;5073137;28;20225;-63
2021/04/05 12:27:59;;;;;;;16.10;7.90;;;15.50;59.10;;;;;;5072848;28;20225;-59
2021/04/05 12:30:28;;;;;;;18.03;8.00;;;15.40;59.20;;;;;;5073186;28;20220;-59
2021/04/05 12:32:57;;;;;;;14.03;8.30;;;15.30;60.40;;;;;;5073121;28;20201;-59
2021/04/05 12:35:24;;;;;;;18.53;9.10;;;15.30;60.20;;;;;;5072756;28;20201;-59
2021/04/05 12:37:57;;;;;;;16.33;8.07;;;15.00;60.50;;;;;;5073061;28;20596;-58
2021/04/05 12:40:25;;;;;;;19.67;8.67;;;14.90;61.50;;;;;;5073038;28;20205;-59
2021/04/05 12:42:52;;;;;;;19.83;8.73;;;14.80;61.40;;;;;;5071990;28;20217;-59
2021/04/05 12:45:20;;;;;;;19.50;9.20;;;14.60;61.60;;;;;;5072398;28;20236;-59
2021/04/05 12:47:51;;;;;;;20.17;8.60;;;14.60;62.00;;;;;;5072408;28;20263;-59
2021/04/05 12:50:25;;;;;;;16.53;8.47;;;14.60;62.00;;;;;;5072894;28;20638;-59
2021/04/05 12:52:58;;;;;;;15.87;8.73;;;14.50;61.90;;;;;;5073072;28;20204;-60
2021/04/05 12:55:27;;;;;;;15.97;9.43;;;14.50;62.00;;;;;;5072470;28;20741;-60
2021/04/05 12:57:57;;;;;;;16.17;8.57;;;14.50;62.30;;;;;;5072231;28;20267;-60
2021/04/05 13:00:26;;;;;;;14.57;8.73;;;14.60;62.10;;;;;;5072420;28;20262;-60
2021/04/05 13:03:00;;;;;;;17.97;8.53;;;14.60;62.00;;;;;;5072729;28;20213;-60
2021/04/05 13:05:35;;;;;;;22.77;11.40;;;14.60;61.60;;;;;;5072205;28;20224;-60
2021/04/05 13:08:06;;;;;;;22.67;10.10;;;14.60;61.60;;;;;;5072105;28;20254;-59
2021/04/05 13:10:42;;;;;;;23.00;9.73;;;14.60;61.80;;;;;;5072309;28;20212;-60